SARP/PSS METAR and TAF weather

Enter ICAO airport designator
Station Type Date Time Source
SARP METAR 2022/12/04 11:00 UTC NOAA

SARP 041100Z 25002KT CAVOK 26/22 Q1009


Station Type Date Time Source
SARP Decoded METAR 2022/12/04 11:00 UTC NOAA

Posadas Aero., Argentina (SARP) 27-22S 055-58W 133M
Dec 04, 2022 - 06:00 AM EST / 2022.12.04 1100 UTC
Wind: from the WSW (250 degrees) at 2 MPH (2 KT):0
Visibility: greater than 7 mile(s):0
Temperature: 78 F (26 C)
Dew Point: 71 F (22 C)
Relative Humidity: 78%
Pressure (altimeter): 29.80 in. Hg (1009 hPa)
ob: SARP 041100Z 25002KT CAVOK 26/22 Q1009
cycle: 11

Station Type Date Time Source
SARP TAF 2022/12/04 12:13 UTC NOAA

TAF SARP 041100Z 0412/0512 27005KT CAVOK TX33/0418Z TN22/0510Z PROB40 0417/0419 7000 -TSRA BKN040 FEW050CB

Example: see airport list